sensor_id;sensor_type;location;lat;lon;timestamp;pressure;altitude;pressure_sealevel;temperature;humidity
76998;BME280;65930;48.874;10.734;2024-03-08T00:00:33;96018.63;;;0.44;100.00
76998;BME280;65930;48.874;10.734;2024-03-08T00:03:01;96020.81;;;0.51;100.00
76998;BME280;65930;48.874;10.734;2024-03-08T00:05:30;96019.16;;;0.37;100.00
76998;BME280;65930;48.874;10.734;2024-03-08T00:07:58;96008.16;;;0.34;100.00
76998;BME280;65930;48.874;10.734;2024-03-08T00:10:26;96015.59;;;0.46;100.00
76998;BME280;65930;48.874;10.734;2024-03-08T00:12:57;96018.63;;;0.44;100.00
76998;BME280;65930;48.874;10.734;2024-03-08T00:15:25;96025.00;;;0.48;100.00
76998;BME280;65930;48.874;10.734;2024-03-08T00:17:56;96021.38;;;0.44;100.00
76998;BME280;65930;48.874;10.734;2024-03-08T00:20:24;96020.19;;;0.33;100.00
76998;BME280;65930;48.874;10.734;2024-03-08T00:22:52;96012.66;;;0.51;100.00
76998;BME280;65930;48.874;10.734;2024-03-08T00:25:20;96017.41;;;0.41;100.00
76998;BME280;65930;48.874;10.734;2024-03-08T00:27:50;96016.03;;;0.48;100.00
76998;BME280;65930;48.874;10.734;2024-03-08T00:30:19;96007.53;;;0.49;100.00
76998;BME280;65930;48.874;10.734;2024-03-08T00:32:47;96001.16;;;0.45;100.00
76998;BME280;65930;48.874;10.734;2024-03-08T00:35:16;96001.56;;;0.35;100.00
76998;BME280;65930;48.874;10.734;2024-03-08T00:37:44;95998.16;;;0.38;100.00
76998;BME280;65930;48.874;10.734;2024-03-08T00:40:14;95993.31;;;0.43;100.00
76998;BME280;65930;48.874;10.734;2024-03-08T00:42:42;95999.97;;;0.34;100.00
76998;BME280;65930;48.874;10.734;2024-03-08T00:45:11;95993.28;;;0.31;100.00
76998;BME280;65930;48.874;10.734;2024-03-08T00:47:41;95995.66;;;0.33;100.00
76998;BME280;65930;48.874;10.734;2024-03-08T00:50:11;95982.72;;;0.30;100.00
76998;BME280;65930;48.874;10.734;2024-03-08T00:52:39;95984.31;;;0.31;100.00
76998;BME280;65930;48.874;10.734;2024-03-08T00:55:08;95988.66;;;0.44;100.00
76998;BME280;65930;48.874;10.734;2024-03-08T00:57:37;95968.88;;;0.35;100.00
76998;BME280;65930;48.874;10.734;2024-03-08T01:00:07;95977.97;;;0.39;100.00
76998;BME280;65930;48.874;10.734;2024-03-08T01:02:41;95978.41;;;0.29;100.00
76998;BME280;65930;48.874;10.734;2024-03-08T01:05:08;95964.34;;;0.39;100.00
76998;BME280;65930;48.874;10.734;2024-03-08T01:07:37;95969.78;;;0.39;100.00
76998;BME280;65930;48.874;10.734;2024-03-08T01:10:05;95949.47;;;0.36;100.00
76998;BME280;65930;48.874;10.734;2024-03-08T01:12:36;95955.25;;;0.35;100.00
76998;BME280;65930;48.874;10.734;2024-03-08T01:15:05;95953.66;;;0.34;100.00
76998;BME280;65930;48.874;10.734;2024-03-08T01:17:34;95949.13;;;0.38;100.00
76998;BME280;65930;48.874;10.734;2024-03-08T01:20:04;95951.06;;;0.37;100.00
76998;BME280;65930;48.874;10.734;2024-03-08T01:22:32;95949.34;;;0.33;100.00
76998;BME280;65930;48.874;10.734;2024-03-08T01:25:00;95943.56;;;0.34;100.00
76998;BME280;65930;48.874;10.734;2024-03-08T01:27:28;95938.81;;;0.31;100.00
76998;BME280;65930;48.874;10.734;2024-03-08T01:29:56;95932.44;;;0.27;100.00
76998;BME280;65930;48.874;10.734;2024-03-08T01:32:25;95930.63;;;0.31;100.00
76998;BME280;65930;48.874;10.734;2024-03-08T01:34:53;95926.88;;;0.36;100.00
76998;BME280;65930;48.874;10.734;2024-03-08T01:37:22;95921.06;;;0.25;100.00
76998;BME280;65930;48.874;10.734;2024-03-08T01:39:50;95913.69;;;0.26;100.00
76998;BME280;65930;48.874;10.734;2024-03-08T01:42:18;95918.47;;;0.29;100.00
76998;BME280;65930;48.874;10.734;2024-03-08T01:44:46;95920.28;;;0.25;100.00
76998;BME280;65930;48.874;10.734;2024-03-08T01:47:15;95912.31;;;0.20;100.00
76998;BME280;65930;48.874;10.734;2024-03-08T01:49:43;95919.63;;;0.28;100.00
76998;BME280;65930;48.874;10.734;2024-03-08T01:52:12;95896.66;;;0.29;100.00
76998;BME280;65930;48.874;10.734;2024-03-08T01:54:42;95898.25;;;0.18;100.00
76998;BME280;65930;48.874;10.734;2024-03-08T01:57:11;95899.50;;;0.20;100.00
76998;BME280;65930;48.874;10.734;2024-03-08T01:59:40;95896.88;;;0.24;100.00
76998;BME280;65930;48.874;10.734;2024-03-08T02:02:11;95897.34;;;0.14;100.00
76998;BME280;65930;48.874;10.734;2024-03-08T02:04:42;95887.22;;;0.14;100.00
76998;BME280;65930;48.874;10.734;2024-03-08T02:07:10;95873.75;;;0.18;100.00
76998;BME280;65930;48.874;10.734;2024-03-08T02:09:38;95873.84;;;0.09;100.00
76998;BME280;65930;48.874;10.734;2024-03-08T02:12:08;95873.03;;;0.09;100.00
76998;BME280;65930;48.874;10.734;2024-03-08T02:14:36;95873.47;;;0.11;100.00
76998;BME280;65930;48.874;10.734;2024-03-08T02:17:07;95872.69;;;-0.02;100.00
76998;BME280;65930;48.874;10.734;2024-03-08T02:19:35;95868.03;;;-0.02;100.00
76998;BME280;65930;48.874;10.734;2024-03-08T02:22:05;95873.34;;;-0.05;100.00
76998;BME280;65930;48.874;10.734;2024-03-08T02:24:34;95868.44;;;-0.12;100.00
76998;BME280;65930;48.874;10.734;2024-03-08T02:27:02;95868.56;;;-0.08;100.00
76998;BME280;65930;48.874;10.734;2024-03-08T02:29:31;95865.53;;;-0.07;100.00
76998;BME280;65930;48.874;10.734;2024-03-08T02:32:00;95857.03;;;-0.05;100.00
76998;BME280;65930;48.874;10.734;2024-03-08T02:34:29;95869.94;;;-0.14;100.00
76998;BME280;65930;48.874;10.734;2024-03-08T02:36:59;95855.31;;;-0.10;100.00
76998;BME280;65930;48.874;10.734;2024-03-08T02:39:28;95858.91;;;-0.18;100.00
76998;BME280;65930;48.874;10.734;2024-03-08T02:41:56;95858.38;;;-0.11;100.00
76998;BME280;65930;48.874;10.734;2024-03-08T02:44:24;95854.38;;;-0.14;100.00
76998;BME280;65930;48.874;10.734;2024-03-08T02:46:52;95851.88;;;-0.19;100.00
76998;BME280;65930;48.874;10.734;2024-03-08T02:49:22;95855.31;;;-0.10;100.00
76998;BME280;65930;48.874;10.734;2024-03-08T02:51:50;95861.41;;;-0.13;100.00
76998;BME280;65930;48.874;10.734;2024-03-08T02:54:18;95858.47;;;-0.20;100.00
76998;BME280;65930;48.874;10.734;2024-03-08T02:56:47;95858.66;;;-0.25;100.00
76998;BME280;65930;48.874;10.734;2024-03-08T02:59:16;95852.97;;;-0.32;100.00
76998;BME280;65930;48.874;10.734;2024-03-08T03:01:45;95859.59;;;-0.21;100.00
76998;BME280;65930;48.874;10.734;2024-03-08T03:04:13;95851.28;;;-0.24;100.00
76998;BME280;65930;48.874;10.734;2024-03-08T03:06:41;95846.19;;;-0.26;100.00
76998;BME280;65930;48.874;10.734;2024-03-08T03:09:09;95851.75;;;-0.22;100.00
76998;BME280;65930;48.874;10.734;2024-03-08T03:11:37;95852.22;;;-0.20;100.00
76998;BME280;65930;48.874;10.734;2024-03-08T03:14:08;95850.28;;;-0.20;100.00
76998;BME280;65930;48.874;10.734;2024-03-08T03:16:36;95851.09;;;-0.19;100.00
76998;BME280;65930;48.874;10.734;2024-03-08T03:19:04;95842.78;;;-0.23;100.00
76998;BME280;65930;48.874;10.734;2024-03-08T03:21:32;95842.91;;;-0.19;100.00
76998;BME280;65930;48.874;10.734;2024-03-08T03:24:03;95843.56;;;-0.22;100.00
76998;BME280;65930;48.874;10.734;2024-03-08T03:26:31;95836.91;;;-0.25;100.00
76998;BME280;65930;48.874;10.734;2024-03-08T03:28:59;95834.88;;;-0.16;100.00
76998;BME280;65930;48.874;10.734;2024-03-08T03:31:31;95833.28;;;-0.17;100.00
76998;BME280;65930;48.874;10.734;2024-03-08T03:33:59;95823.72;;;-0.23;100.00
76998;BME280;65930;48.874;10.734;2024-03-08T03:36:29;95820.47;;;-0.16;100.00
76998;BME280;65930;48.874;10.734;2024-03-08T03:38:57;95826.91;;;-0.21;100.00
76998;BME280;65930;48.874;10.734;2024-03-08T03:41:37;95824.78;;;-0.15;100.00
76998;BME280;65930;48.874;10.734;2024-03-08T03:44:05;95831.56;;;-0.21;100.00
76998;BME280;65930;48.874;10.734;2024-03-08T03:46:35;95824.41;;;-0.26;100.00
76998;BME280;65930;48.874;10.734;2024-03-08T03:49:03;95826.66;;;-0.28;100.00
76998;BME280;65930;48.874;10.734;2024-03-08T03:51:31;95823.72;;;-0.23;100.00
76998;BME280;65930;48.874;10.734;2024-03-08T03:53:59;95819.44;;;-0.24;100.00
76998;BME280;65930;48.874;10.734;2024-03-08T03:56:27;95811.50;;;-0.17;100.00
76998;BME280;65930;48.874;10.734;2024-03-08T03:58:55;95817.25;;;-0.30;100.00
76998;BME280;65930;48.874;10.734;2024-03-08T04:01:23;95818.06;;;-0.18;100.00
76998;BME280;65930;48.874;10.734;2024-03-08T04:03:53;95806.06;;;-0.17;100.00
76998;BME280;65930;48.874;10.734;2024-03-08T04:06:21;95800.03;;;-0.22;100.00
76998;BME280;65930;48.874;10.734;2024-03-08T04:08:50;95800.94;;;-0.18;100.00
76998;BME280;65930;48.874;10.734;2024-03-08T04:11:18;95793.56;;;-0.18;100.00
76998;BME280;65930;48.874;10.734;2024-03-08T04:13:46;95795.84;;;-0.20;100.00
76998;BME280;65930;48.874;10.734;2024-03-08T04:16:15;95789.50;;;-0.12;100.00
76998;BME280;65930;48.874;10.734;2024-03-08T04:18:43;95791.75;;;-0.14;100.00
76998;BME280;65930;48.874;10.734;2024-03-08T04:21:12;95783.84;;;-0.07;100.00
76998;BME280;65930;48.874;10.734;2024-03-08T04:23:40;95786.56;;;-0.07;100.00
76998;BME280;65930;48.874;10.734;2024-03-08T04:26:10;95781.44;;;-0.08;100.00
76998;BME280;65930;48.874;10.734;2024-03-08T04:28:38;95776.34;;;-0.10;100.00
76998;BME280;65930;48.874;10.734;2024-03-08T04:31:06;95779.06;;;-0.10;100.00
76998;BME280;65930;48.874;10.734;2024-03-08T04:33:34;95780.19;;;-0.11;100.00
76998;BME280;65930;48.874;10.734;2024-03-08T04:36:02;95772.03;;;-0.11;100.00
76998;BME280;65930;48.874;10.734;2024-03-08T04:38:33;95779.84;;;-0.09;100.00
76998;BME280;65930;48.874;10.734;2024-03-08T04:41:01;95779.72;;;-0.13;100.00
76998;BME280;65930;48.874;10.734;2024-03-08T04:43:29;95779.16;;;-0.18;100.00
76998;BME280;65930;48.874;10.734;2024-03-08T04:45:57;95783.16;;;-0.16;100.00
76998;BME280;65930;48.874;10.734;2024-03-08T04:48:25;95771.81;;;-0.06;100.00
76998;BME280;65930;48.874;10.734;2024-03-08T04:50:53;95775.19;;;-0.09;100.00
76998;BME280;65930;48.874;10.734;2024-03-08T04:53:22;95777.25;;;-0.06;100.00
76998;BME280;65930;48.874;10.734;2024-03-08T04:55:51;95780.53;;;-0.12;100.00
76998;BME280;65930;48.874;10.734;2024-03-08T04:58:19;95774.97;;;-0.16;100.00
76998;BME280;65930;48.874;10.734;2024-03-08T05:00:47;95771.69;;;-0.09;100.00
76998;BME280;65930;48.874;10.734;2024-03-08T05:03:15;95779.06;;;-0.10;100.00
76998;BME280;65930;48.874;10.734;2024-03-08T05:05:44;95781.00;;;-0.10;100.00
76998;BME280;65930;48.874;10.734;2024-03-08T05:08:12;95798.69;;;-0.04;100.00
76998;BME280;65930;48.874;10.734;2024-03-08T05:10:40;95791.31;;;-0.04;100.00
76998;BME280;65930;48.874;10.734;2024-03-08T05:13:09;95787.47;;;-0.03;100.00
76998;BME280;65930;48.874;10.734;2024-03-08T05:15:38;95790.28;;;0.01;100.00
76998;BME280;65930;48.874;10.734;2024-03-08T05:18:06;95790.53;;;0.08;100.00
76998;BME280;65930;48.874;10.734;2024-03-08T05:20:35;95792.69;;;0.03;100.00
76998;BME280;65930;48.874;10.734;2024-03-08T05:23:04;95789.41;;;0.09;100.00
76998;BME280;65930;48.874;10.734;2024-03-08T05:25:32;95795.19;;;0.08;100.00
76998;BME280;65930;48.874;10.734;2024-03-08T05:28:00;95789.75;;;0.08;100.00
76998;BME280;65930;48.874;10.734;2024-03-08T05:30:29;95780.19;;;0.02;100.00
76998;BME280;65930;48.874;10.734;2024-03-08T05:32:58;95767.06;;;0.04;100.00
76998;BME280;65930;48.874;10.734;2024-03-08T05:35:26;95780.19;;;0.02;100.00
76998;BME280;65930;48.874;10.734;2024-03-08T05:37:54;95777.16;;;0.03;100.00
76998;BME280;65930;48.874;10.734;2024-03-08T05:40:22;95779.28;;;0.10;100.00
76998;BME280;65930;48.874;10.734;2024-03-08T05:42:50;95775.66;;;0.06;100.00
76998;BME280;65930;48.874;10.734;2024-03-08T05:45:18;95776.69;;;0.01;100.00
76998;BME280;65930;48.874;10.734;2024-03-08T05:47:48;95765.00;;;0.00;100.00
76998;BME280;65930;48.874;10.734;2024-03-08T05:50:16;95768.41;;;-0.03;100.00
76998;BME280;65930;48.874;10.734;2024-03-08T05:52:44;95760.94;;;-0.06;100.00
76998;BME280;65930;48.874;10.734;2024-03-08T05:55:12;95766.00;;;-0.04;100.00
76998;BME280;65930;48.874;10.734;2024-03-08T05:57:41;95769.09;;;-0.06;100.00
76998;BME280;65930;48.874;10.734;2024-03-08T06:00:10;95769.19;;;-0.02;100.00
76998;BME280;65930;48.874;10.734;2024-03-08T06:02:38;95763.66;;;-0.06;100.00
76998;BME280;65930;48.874;10.734;2024-03-08T06:05:10;95766.38;;;-0.06;100.00
76998;BME280;65930;48.874;10.734;2024-03-08T06:07:38;95770.66;;;-0.05;100.00
76998;BME280;65930;48.874;10.734;2024-03-08T06:10:08;95769.09;;;-0.06;100.00
76998;BME280;65930;48.874;10.734;2024-03-08T06:12:39;95764.56;;;-0.02;100.00
76998;BME280;65930;48.874;10.734;2024-03-08T06:15:09;95769.31;;;0.02;100.00
76998;BME280;65930;48.874;10.734;2024-03-08T06:17:42;95765.34;;;-0.01;100.00
76998;BME280;65930;48.874;10.734;2024-03-08T06:20:12;95756.81;;;0.00;100.00
76998;BME280;65930;48.874;10.734;2024-03-08T06:22:41;95751.94;;;0.06;100.00
76998;BME280;65930;48.874;10.734;2024-03-08T06:25:09;95754.69;;;0.06;100.00
76998;BME280;65930;48.874;10.734;2024-03-08T06:27:38;95757.41;;;0.06;100.00
76998;BME280;65930;48.874;10.734;2024-03-08T06:30:07;95748.56;;;0.09;100.00
76998;BME280;65930;48.874;10.734;2024-03-08T06:32:36;95749.22;;;0.06;100.00
76998;BME280;65930;48.874;10.734;2024-03-08T06:35:05;95756.84;;;0.13;100.00
76998;BME280;65930;48.874;10.734;2024-03-08T06:37:35;95747.06;;;0.12;100.00
76998;BME280;65930;48.874;10.734;2024-03-08T06:40:04;95741.72;;;0.15;100.00
76998;BME280;65930;48.874;10.734;2024-03-08T06:42:34;95756.63;;;0.18;100.00
76998;BME280;65930;48.874;10.734;2024-03-08T06:45:03;95753.66;;;0.23;100.00
76998;BME280;65930;48.874;10.734;2024-03-08T06:47:32;95744.13;;;0.17;100.00
76998;BME280;65930;48.874;10.734;2024-03-08T06:50:01;95749.78;;;0.24;100.00
76998;BME280;65930;48.874;10.734;2024-03-08T06:52:30;95749.91;;;0.27;100.00
76998;BME280;65930;48.874;10.734;2024-03-08T06:55:00;95756.59;;;0.30;100.00
76998;BME280;65930;48.874;10.734;2024-03-08T06:57:32;95759.09;;;0.35;100.00
76998;BME280;65930;48.874;10.734;2024-03-08T07:00:00;95756.03;;;0.36;100.00
76998;BME280;65930;48.874;10.734;2024-03-08T07:02:28;95757.25;;;0.39;100.00
76998;BME280;65930;48.874;10.734;2024-03-08T07:04:56;95755.09;;;0.44;100.00
76998;BME280;65930;48.874;10.734;2024-03-08T07:07:25;95757.38;;;0.42;100.00
76998;BME280;65930;48.874;10.734;2024-03-08T07:09:53;95755.91;;;0.45;100.00
76998;BME280;65930;48.874;10.734;2024-03-08T07:12:24;95751.13;;;0.54;100.00
76998;BME280;65930;48.874;10.734;2024-03-08T07:14:53;95748.06;;;0.56;100.00
76998;BME280;65930;48.874;10.734;2024-03-08T07:17:21;95726.59;;;0.54;100.00
76998;BME280;65930;48.874;10.734;2024-03-08T07:19:49;95745.44;;;0.59;100.00
76998;BME280;65930;48.874;10.734;2024-03-08T07:22:17;95743.94;;;0.62;100.00
76998;BME280;65930;48.874;10.734;2024-03-08T07:24:45;95731.34;;;0.57;100.00
76998;BME280;65930;48.874;10.734;2024-03-08T07:27:32;95745.19;;;0.64;100.00
76998;BME280;65930;48.874;10.734;2024-03-08T07:30:01;95746.66;;;0.62;100.00
76998;BME280;65930;48.874;10.734;2024-03-08T07:32:31;95735.19;;;0.68;100.00
76998;BME280;65930;48.874;10.734;2024-03-08T07:35:01;95734.53;;;0.59;100.00
76998;BME280;65930;48.874;10.734;2024-03-08T07:37:31;95727.00;;;0.68;100.00
76998;BME280;65930;48.874;10.734;2024-03-08T07:39:59;95734.25;;;0.76;100.00
76998;BME280;65930;48.874;10.734;2024-03-08T07:42:27;95734.25;;;0.76;100.00
76998;BME280;65930;48.874;10.734;2024-03-08T07:44:57;95734.47;;;0.83;100.00
76998;BME280;65930;48.874;10.734;2024-03-08T07:47:26;95729.25;;;0.78;100.00
76998;BME280;65930;48.874;10.734;2024-03-08T07:49:54;95729.91;;;0.87;100.00
76998;BME280;65930;48.874;10.734;2024-03-08T07:52:24;95726.56;;;0.94;100.00
76998;BME280;65930;48.874;10.734;2024-03-08T07:54:52;95732.41;;;0.93;100.00
76998;BME280;65930;48.874;10.734;2024-03-08T07:57:21;95723.81;;;0.78;100.00
76998;BME280;65930;48.874;10.734;2024-03-08T07:59:49;95714.22;;;0.84;100.00
76998;BME280;65930;48.874;10.734;2024-03-08T08:02:18;95717.41;;;0.86;100.00
76998;BME280;65930;48.874;10.734;2024-03-08T08:04:46;95710.59;;;0.80;100.00
76998;BME280;65930;48.874;10.734;2024-03-08T08:07:15;95713.47;;;0.84;100.00
76998;BME280;65930;48.874;10.734;2024-03-08T08:09:43;95711.72;;;0.92;100.00
76998;BME280;65930;48.874;10.734;2024-03-08T08:12:11;95721.69;;;1.00;100.00
76998;BME280;65930;48.874;10.734;2024-03-08T08:14:39;95713.50;;;1.00;100.00
76998;BME280;65930;48.874;10.734;2024-03-08T08:17:08;95719.88;;;1.19;100.00
76998;BME280;65930;48.874;10.734;2024-03-08T08:19:37;95711.25;;;1.17;100.00
76998;BME280;65930;48.874;10.734;2024-03-08T08:22:06;95703.25;;;1.24;100.00
76998;BME280;65930;48.874;10.734;2024-03-08T08:24:35;95701.50;;;1.16;100.00
76998;BME280;65930;48.874;10.734;2024-03-08T08:27:04;95696.81;;;1.17;100.00
76998;BME280;65930;48.874;10.734;2024-03-08T08:29:36;95680.19;;;1.22;100.00
76998;BME280;65930;48.874;10.734;2024-03-08T08:32:04;95702.69;;;1.47;100.00
76998;BME280;65930;48.874;10.734;2024-03-08T08:34:32;95674.22;;;1.32;100.00
76998;BME280;65930;48.874;10.734;2024-03-08T08:37:02;95668.88;;;1.67;100.00
76998;BME280;65930;48.874;10.734;2024-03-08T08:39:30;95675.66;;;1.57;100.00
76998;BME280;65930;48.874;10.734;2024-03-08T08:41:59;95669.75;;;1.40;100.00
76998;BME280;65930;48.874;10.734;2024-03-08T08:44:27;95670.53;;;1.87;100.00
76998;BME280;65930;48.874;10.734;2024-03-08T08:46:55;95673.53;;;1.98;100.00
76998;BME280;65930;48.874;10.734;2024-03-08T08:49:35;95678.72;;;2.03;100.00
76998;BME280;65930;48.874;10.734;2024-03-08T08:52:05;95677.25;;;1.58;100.00
76998;BME280;65930;48.874;10.734;2024-03-08T08:54:42;95658.50;;;1.57;100.00
76998;BME280;65930;48.874;10.734;2024-03-08T08:57:15;95666.06;;;1.79;100.00
76998;BME280;65930;48.874;10.734;2024-03-08T08:59:43;95663.84;;;1.85;100.00
76998;BME280;65930;48.874;10.734;2024-03-08T09:02:12;95659.03;;;2.29;100.00
76998;BME280;65930;48.874;10.734;2024-03-08T09:04:44;95674.31;;;2.14;100.00
76998;BME280;65930;48.874;10.734;2024-03-08T09:07:14;95667.13;;;2.25;100.00
76998;BME280;65930;48.874;10.734;2024-03-08T09:09:43;95662.44;;;2.26;99.88
76998;BME280;65930;48.874;10.734;2024-03-08T09:12:11;95665.22;;;2.45;97.98
76998;BME280;65930;48.874;10.734;2024-03-08T09:14:40;95671.47;;;2.45;98.20
76998;BME280;65930;48.874;10.734;2024-03-08T09:17:08;95668.41;;;2.47;98.47
76998;BME280;65930;48.874;10.734;2024-03-08T09:19:36;95657.38;;;2.43;96.84
76998;BME280;65930;48.874;10.734;2024-03-08T09:22:04;95653.84;;;2.62;97.47
76998;BME280;65930;48.874;10.734;2024-03-08T09:24:33;95653.28;;;2.72;96.29
76998;BME280;65930;48.874;10.734;2024-03-08T09:27:02;95651.47;;;2.99;94.96
76998;BME280;65930;48.874;10.734;2024-03-08T09:29:30;95650.75;;;3.21;93.00
76998;BME280;65930;48.874;10.734;2024-03-08T09:31:57;95638.66;;;3.45;92.32
76998;BME280;65930;48.874;10.734;2024-03-08T09:34:25;95645.56;;;3.16;93.06
76998;BME280;65930;48.874;10.734;2024-03-08T09:37:03;95633.09;;;3.19;92.43
76998;BME280;65930;48.874;10.734;2024-03-08T09:39:32;95635.91;;;3.68;91.28
76998;BME280;65930;48.874;10.734;2024-03-08T09:42:02;95624.97;;;3.45;90.68
76998;BME280;65930;48.874;10.734;2024-03-08T09:44:30;95629.91;;;3.59;89.61
76998;BME280;65930;48.874;10.734;2024-03-08T09:46:59;95630.69;;;3.59;88.51
76998;BME280;65930;48.874;10.734;2024-03-08T09:49:29;95617.78;;;3.82;88.11
76998;BME280;65930;48.874;10.734;2024-03-08T09:51:58;95626.41;;;3.84;90.21
76998;BME280;65930;48.874;10.734;2024-03-08T09:54:27;95605.91;;;3.29;89.82
76998;BME280;65930;48.874;10.734;2024-03-08T09:56:56;95628.41;;;3.65;90.06
76998;BME280;65930;48.874;10.734;2024-03-08T09:59:25;95625.13;;;3.55;88.07
76998;BME280;65930;48.874;10.734;2024-03-08T10:02:18;95635.16;;;3.93;88.02
76998;BME280;65930;48.874;10.734;2024-03-08T10:04:48;95629.84;;;4.60;86.14
76998;BME280;65930;48.874;10.734;2024-03-08T10:07:16;95624.19;;;4.46;86.66
76998;BME280;65930;48.874;10.734;2024-03-08T10:09:44;95617.84;;;4.42;85.71
76998;BME280;65930;48.874;10.734;2024-03-08T10:12:17;95620.44;;;4.31;86.06
76998;BME280;65930;48.874;10.734;2024-03-08T10:14:49;95598.94;;;4.33;84.40
76998;BME280;65930;48.874;10.734;2024-03-08T10:17:19;95614.53;;;4.29;85.75
76998;BME280;65930;48.874;10.734;2024-03-08T10:19:50;95615.38;;;4.63;84.67
76998;BME280;65930;48.874;10.734;2024-03-08T10:22:20;95612.84;;;4.81;82.54
76998;BME280;65930;48.874;10.734;2024-03-08T10:24:48;95610.69;;;4.64;83.72
76998;BME280;65930;48.874;10.734;2024-03-08T10:27:17;95599.88;;;5.11;82.37
76998;BME280;65930;48.874;10.734;2024-03-08T10:29:47;95607.59;;;5.36;82.17
76998;BME280;65930;48.874;10.734;2024-03-08T10:32:15;95584.34;;;4.89;81.64
76998;BME280;65930;48.874;10.734;2024-03-08T10:34:45;95596.81;;;4.83;82.50
76998;BME280;65930;48.874;10.734;2024-03-08T10:37:15;95598.94;;;5.37;79.59
76998;BME280;65930;48.874;10.734;2024-03-08T10:39:50;95572.69;;;4.99;79.04
76998;BME280;65930;48.874;10.734;2024-03-08T10:42:28;95595.06;;;5.01;81.60
76998;BME280;65930;48.874;10.734;2024-03-08T10:45:06;95574.66;;;4.99;80.21
76998;BME280;65930;48.874;10.734;2024-03-08T10:47:41;95575.63;;;5.17;79.44
76998;BME280;65930;48.874;10.734;2024-03-08T10:50:18;95589.13;;;5.80;79.31
76998;BME280;65930;48.874;10.734;2024-03-08T10:52:49;95581.53;;;5.63;77.70
76998;BME280;65930;48.874;10.734;2024-03-08T10:55:18;95575.72;;;6.26;76.18
76998;BME280;65930;48.874;10.734;2024-03-08T10:57:47;95566.25;;;5.21;77.01
76998;BME280;65930;48.874;10.734;2024-03-08T11:00:15;95577.06;;;5.44;77.99
76998;BME280;65930;48.874;10.734;2024-03-08T11:02:45;95562.78;;;5.75;77.47
76998;BME280;65930;48.874;10.734;2024-03-08T11:05:32;95581.00;;;5.94;77.33
76998;BME280;65930;48.874;10.734;2024-03-08T11:08:17;95579.41;;;5.90;76.75
76998;BME280;65930;48.874;10.734;2024-03-08T11:10:49;95573.13;;;5.89;77.62
76998;BME280;65930;48.874;10.734;2024-03-08T11:13:35;95565.66;;;5.90;75.12
76998;BME280;65930;48.874;10.734;2024-03-08T11:16:07;95575.69;;;6.23;73.83
76998;BME280;65930;48.874;10.734;2024-03-08T11:18:36;95559.81;;;5.98;76.27
76998;BME280;65930;48.874;10.734;2024-03-08T11:21:08;95559.91;;;6.12;74.88
76998;BME280;65930;48.874;10.734;2024-03-08T11:23:39;95556.94;;;6.42;73.28
76998;BME280;65930;48.874;10.734;2024-03-08T11:26:17;95556.22;;;6.56;73.88
76998;BME280;65930;48.874;10.734;2024-03-08T11:28:45;95547.41;;;6.22;73.85
76998;BME280;65930;48.874;10.734;2024-03-08T11:31:25;95541.16;;;6.29;74.04
76998;BME280;65930;48.874;10.734;2024-03-08T11:33:54;95531.28;;;6.20;72.11
76998;BME280;65930;48.874;10.734;2024-03-08T11:36:25;95546.81;;;6.60;73.49
76998;BME280;65930;48.874;10.734;2024-03-08T11:38:53;95535.63;;;6.22;72.21
76998;BME280;65930;48.874;10.734;2024-03-08T11:41:24;95521.66;;;6.62;72.55
76998;BME280;65930;48.874;10.734;2024-03-08T11:44:02;95528.75;;;6.70;71.93
76998;BME280;65930;48.874;10.734;2024-03-08T11:46:33;95528.34;;;6.61;71.60
76998;BME280;65930;48.874;10.734;2024-03-08T11:49:01;95529.09;;;6.58;71.37
76998;BME280;65930;48.874;10.734;2024-03-08T11:51:31;95528.72;;;6.63;70.00
76998;BME280;65930;48.874;10.734;2024-03-08T11:54:00;95527.97;;;6.77;71.34
76998;BME280;65930;48.874;10.734;2024-03-08T11:56:28;95530.31;;;6.64;72.86
76998;BME280;65930;48.874;10.734;2024-03-08T11:58:59;95518.56;;;6.74;71.32
76998;BME280;65930;48.874;10.734;2024-03-08T12:01:28;95505.25;;;6.90;68.74
76998;BME280;65930;48.874;10.734;2024-03-08T12:03:58;95513.47;;;6.76;69.40
76998;BME280;65930;48.874;10.734;2024-03-08T12:06:37;95500.91;;;6.93;69.67
76998;BME280;65930;48.874;10.734;2024-03-08T12:09:10;95502.06;;;6.95;69.44
76998;BME280;65930;48.874;10.734;2024-03-08T12:11:40;95486.38;;;6.99;68.14
76998;BME280;65930;48.874;10.734;2024-03-08T12:14:09;95495.00;;;6.94;67.80
76998;BME280;65930;48.874;10.734;2024-03-08T12:16:37;95489.53;;;7.19;67.84
76998;BME280;65930;48.874;10.734;2024-03-08T12:19:06;95484.78;;;7.05;66.64
76998;BME280;65930;48.874;10.734;2024-03-08T12:21:37;95485.97;;;7.15;67.61
76998;BME280;65930;48.874;10.734;2024-03-08T12:24:15;95481.28;;;7.23;65.38
76998;BME280;65930;48.874;10.734;2024-03-08T12:26:46;95490.31;;;7.20;65.47
76998;BME280;65930;48.874;10.734;2024-03-08T12:29:20;95484.03;;;7.33;66.26
76998;BME280;65930;48.874;10.734;2024-03-08T12:31:51;95487.19;;;7.74;65.31
76998;BME280;65930;48.874;10.734;2024-03-08T12:34:21;95469.88;;;7.45;65.49
76998;BME280;65930;48.874;10.734;2024-03-08T12:36:51;95474.56;;;7.52;65.93
76998;BME280;65930;48.874;10.734;2024-03-08T12:39:22;95460.41;;;7.53;64.46
76998;BME280;65930;48.874;10.734;2024-03-08T12:41:54;95457.25;;;7.62;63.51
76998;BME280;65930;48.874;10.734;2024-03-08T12:44:24;95455.66;;;7.68;64.23
76998;BME280;65930;48.874;10.734;2024-03-08T12:46:53;95452.53;;;7.38;64.95
76998;BME280;65930;48.874;10.734;2024-03-08T12:49:21;95447.03;;;7.41;63.71
76998;BME280;65930;48.874;10.734;2024-03-08T12:51:51;95446.94;;;7.94;64.01
76998;BME280;65930;48.874;10.734;2024-03-08T12:54:20;95447.00;;;7.73;61.94
76998;BME280;65930;48.874;10.734;2024-03-08T12:56:50;95437.56;;;7.74;63.05
76998;BME280;65930;48.874;10.734;2024-03-08T12:59:21;95440.66;;;7.90;62.17
76998;BME280;65930;48.874;10.734;2024-03-08T13:01:50;95435.56;;;7.78;63.23